sensor_id;sensor_type;location;lat;lon;timestamp;P1;durP1;ratioP1;P2;durP2;ratioP2
49416;SDS011;35290;39.550;8.786;2022-09-09T00:04:34;7.65;;;2.15;;
49416;SDS011;35290;39.550;8.786;2022-09-09T00:17:33;14.63;;;3.20;;
49416;SDS011;35290;39.550;8.786;2022-09-09T00:23:32;12.15;;;2.78;;
49416;SDS011;35290;39.550;8.786;2022-09-09T00:29:03;7.75;;;2.22;;
49416;SDS011;35290;39.550;8.786;2022-09-09T00:31:30;11.18;;;2.08;;
49416;SDS011;35290;39.550;8.786;2022-09-09T00:34:09;15.20;;;2.50;;
49416;SDS011;35290;39.550;8.786;2022-09-09T00:36:39;7.45;;;2.00;;
49416;SDS011;35290;39.550;8.786;2022-09-09T00:39:05;11.25;;;2.15;;
49416;SDS011;35290;39.550;8.786;2022-09-09T00:57:34;11.82;;;2.47;;
49416;SDS011;35290;39.550;8.786;2022-09-09T01:03:08;10.38;;;2.03;;
49416;SDS011;35290;39.550;8.786;2022-09-09T01:14:16;9.30;;;2.53;;
49416;SDS011;35290;39.550;8.786;2022-09-09T01:16:50;10.43;;;2.70;;
49416;SDS011;35290;39.550;8.786;2022-09-09T01:19:24;10.02;;;2.55;;
49416;SDS011;35290;39.550;8.786;2022-09-09T01:22:06;7.72;;;1.92;;
49416;SDS011;35290;39.550;8.786;2022-09-09T01:24:41;12.15;;;2.47;;
49416;SDS011;35290;39.550;8.786;2022-09-09T01:27:19;8.88;;;2.28;;
49416;SDS011;35290;39.550;8.786;2022-09-09T01:29:45;11.10;;;2.30;;
49416;SDS011;35290;39.550;8.786;2022-09-09T01:35:21;13.13;;;2.85;;
49416;SDS011;35290;39.550;8.786;2022-09-09T01:37:55;11.93;;;3.30;;
49416;SDS011;35290;39.550;8.786;2022-09-09T01:40:20;16.83;;;2.72;;
49416;SDS011;35290;39.550;8.786;2022-09-09T01:42:46;11.68;;;3.28;;
49416;SDS011;35290;39.550;8.786;2022-09-09T01:45:12;10.27;;;3.13;;
49416;SDS011;35290;39.550;8.786;2022-09-09T01:47:37;14.00;;;3.45;;
49416;SDS011;35290;39.550;8.786;2022-09-09T01:50:03;13.80;;;3.33;;
49416;SDS011;35290;39.550;8.786;2022-09-09T01:52:29;12.43;;;2.85;;
49416;SDS011;35290;39.550;8.786;2022-09-09T01:54:55;9.93;;;2.90;;
49416;SDS011;35290;39.550;8.786;2022-09-09T01:57:27;14.88;;;2.35;;
49416;SDS011;35290;39.550;8.786;2022-09-09T02:00:07;9.98;;;2.60;;
49416;SDS011;35290;39.550;8.786;2022-09-09T02:02:48;16.92;;;3.00;;
49416;SDS011;35290;39.550;8.786;2022-09-09T02:06:04;11.70;;;2.50;;
49416;SDS011;35290;39.550;8.786;2022-09-09T02:09:09;14.05;;;2.92;;
49416;SDS011;35290;39.550;8.786;2022-09-09T02:11:28;10.65;;;2.50;;
49416;SDS011;35290;39.550;8.786;2022-09-09T02:13:55;8.23;;;2.40;;
49416;SDS011;35290;39.550;8.786;2022-09-09T02:19:13;14.60;;;2.70;;
49416;SDS011;35290;39.550;8.786;2022-09-09T02:21:41;10.30;;;2.55;;
49416;SDS011;35290;39.550;8.786;2022-09-09T02:24:08;9.85;;;2.15;;
49416;SDS011;35290;39.550;8.786;2022-09-09T02:26:36;11.57;;;2.70;;
49416;SDS011;35290;39.550;8.786;2022-09-09T02:29:06;9.95;;;2.30;;
49416;SDS011;35290;39.550;8.786;2022-09-09T02:31:34;8.20;;;2.05;;
49416;SDS011;35290;39.550;8.786;2022-09-09T02:34:01;11.27;;;2.50;;
49416;SDS011;35290;39.550;8.786;2022-09-09T02:36:29;15.10;;;2.75;;
49416;SDS011;35290;39.550;8.786;2022-09-09T02:38:58;8.13;;;1.95;;
49416;SDS011;35290;39.550;8.786;2022-09-09T02:41:24;9.38;;;2.50;;
49416;SDS011;35290;39.550;8.786;2022-09-09T02:43:52;12.85;;;2.30;;
49416;SDS011;35290;39.550;8.786;2022-09-09T02:46:22;10.35;;;2.05;;
49416;SDS011;35290;39.550;8.786;2022-09-09T02:52:17;8.20;;;2.75;;
49416;SDS011;35290;39.550;8.786;2022-09-09T02:54:43;13.00;;;2.60;;
49416;SDS011;35290;39.550;8.786;2022-09-09T02:57:23;13.57;;;3.15;;
49416;SDS011;35290;39.550;8.786;2022-09-09T02:59:53;11.05;;;3.08;;
49416;SDS011;35290;39.550;8.786;2022-09-09T03:02:20;14.60;;;2.92;;
49416;SDS011;35290;39.550;8.786;2022-09-09T03:04:45;12.90;;;3.17;;
49416;SDS011;35290;39.550;8.786;2022-09-09T03:07:15;19.80;;;3.40;;
49416;SDS011;35290;39.550;8.786;2022-09-09T03:09:42;13.50;;;3.17;;
49416;SDS011;35290;39.550;8.786;2022-09-09T03:12:09;13.25;;;3.20;;
49416;SDS011;35290;39.550;8.786;2022-09-09T03:14:36;9.95;;;2.30;;
49416;SDS011;35290;39.550;8.786;2022-09-09T03:17:03;11.80;;;3.28;;
49416;SDS011;35290;39.550;8.786;2022-09-09T03:19:29;13.05;;;3.20;;
49416;SDS011;35290;39.550;8.786;2022-09-09T03:21:55;14.68;;;3.05;;
49416;SDS011;35290;39.550;8.786;2022-09-09T03:24:20;16.00;;;2.90;;
49416;SDS011;35290;39.550;8.786;2022-09-09T03:26:47;16.45;;;3.35;;
49416;SDS011;35290;39.550;8.786;2022-09-09T03:29:13;12.88;;;2.95;;
49416;SDS011;35290;39.550;8.786;2022-09-09T03:31:40;16.85;;;3.30;;
49416;SDS011;35290;39.550;8.786;2022-09-09T03:34:05;15.40;;;3.05;;
49416;SDS011;35290;39.550;8.786;2022-09-09T03:36:31;13.82;;;2.67;;
49416;SDS011;35290;39.550;8.786;2022-09-09T03:38:57;10.57;;;2.83;;
49416;SDS011;35290;39.550;8.786;2022-09-09T03:41:23;12.07;;;2.90;;
49416;SDS011;35290;39.550;8.786;2022-09-09T03:43:49;12.13;;;3.00;;
49416;SDS011;35290;39.550;8.786;2022-09-09T03:46:16;11.68;;;2.53;;
49416;SDS011;35290;39.550;8.786;2022-09-09T03:48:41;11.20;;;2.53;;
49416;SDS011;35290;39.550;8.786;2022-09-09T03:51:07;7.82;;;2.38;;
49416;SDS011;35290;39.550;8.786;2022-09-09T03:53:32;8.63;;;2.72;;
49416;SDS011;35290;39.550;8.786;2022-09-09T03:55:58;13.07;;;2.45;;
49416;SDS011;35290;39.550;8.786;2022-09-09T03:58:25;7.32;;;2.53;;
49416;SDS011;35290;39.550;8.786;2022-09-09T04:03:24;11.05;;;3.10;;
49416;SDS011;35290;39.550;8.786;2022-09-09T04:05:54;9.52;;;2.70;;
49416;SDS011;35290;39.550;8.786;2022-09-09T04:08:20;10.68;;;3.13;;
49416;SDS011;35290;39.550;8.786;2022-09-09T04:10:47;9.93;;;2.63;;
49416;SDS011;35290;39.550;8.786;2022-09-09T04:13:15;9.85;;;2.90;;
49416;SDS011;35290;39.550;8.786;2022-09-09T04:15:43;8.00;;;3.03;;
49416;SDS011;35290;39.550;8.786;2022-09-09T04:18:10;12.25;;;2.35;;
49416;SDS011;35290;39.550;8.786;2022-09-09T04:20:36;13.68;;;3.40;;
49416;SDS011;35290;39.550;8.786;2022-09-09T04:23:03;11.00;;;2.60;;
49416;SDS011;35290;39.550;8.786;2022-09-09T04:25:29;10.13;;;2.95;;
49416;SDS011;35290;39.550;8.786;2022-09-09T04:27:55;10.93;;;3.10;;
49416;SDS011;35290;39.550;8.786;2022-09-09T04:30:21;10.65;;;2.70;;
49416;SDS011;35290;39.550;8.786;2022-09-09T04:32:47;12.77;;;2.97;;
49416;SDS011;35290;39.550;8.786;2022-09-09T04:35:13;10.55;;;3.08;;
49416;SDS011;35290;39.550;8.786;2022-09-09T04:37:38;9.00;;;2.92;;
49416;SDS011;35290;39.550;8.786;2022-09-09T04:40:04;12.23;;;2.78;;
49416;SDS011;35290;39.550;8.786;2022-09-09T04:42:34;12.43;;;2.95;;
49416;SDS011;35290;39.550;8.786;2022-09-09T04:45:03;11.25;;;2.78;;
49416;SDS011;35290;39.550;8.786;2022-09-09T04:47:30;9.13;;;3.60;;
49416;SDS011;35290;39.550;8.786;2022-09-09T04:49:55;11.25;;;2.70;;
49416;SDS011;35290;39.550;8.786;2022-09-09T04:52:21;10.50;;;2.78;;
49416;SDS011;35290;39.550;8.786;2022-09-09T04:54:47;10.75;;;3.40;;
49416;SDS011;35290;39.550;8.786;2022-09-09T04:57:13;17.13;;;3.28;;
49416;SDS011;35290;39.550;8.786;2022-09-09T04:59:38;11.75;;;2.90;;
49416;SDS011;35290;39.550;8.786;2022-09-09T05:02:04;12.13;;;3.55;;
49416;SDS011;35290;39.550;8.786;2022-09-09T05:04:30;15.30;;;3.10;;
49416;SDS011;35290;39.550;8.786;2022-09-09T05:06:55;11.25;;;3.05;;
49416;SDS011;35290;39.550;8.786;2022-09-09T05:09:21;9.15;;;2.80;;
49416;SDS011;35290;39.550;8.786;2022-09-09T05:11:46;12.00;;;3.17;;
49416;SDS011;35290;39.550;8.786;2022-09-09T05:14:12;12.48;;;3.00;;
49416;SDS011;35290;39.550;8.786;2022-09-09T05:16:39;11.43;;;2.70;;
49416;SDS011;35290;39.550;8.786;2022-09-09T05:19:05;10.98;;;2.92;;
49416;SDS011;35290;39.550;8.786;2022-09-09T05:21:33;11.65;;;2.58;;
49416;SDS011;35290;39.550;8.786;2022-09-09T05:23:58;16.88;;;3.65;;
49416;SDS011;35290;39.550;8.786;2022-09-09T05:26:25;14.68;;;3.25;;
49416;SDS011;35290;39.550;8.786;2022-09-09T05:28:52;15.77;;;3.40;;
49416;SDS011;35290;39.550;8.786;2022-09-09T05:31:17;14.57;;;3.55;;
49416;SDS011;35290;39.550;8.786;2022-09-09T05:33:45;15.05;;;3.47;;
49416;SDS011;35290;39.550;8.786;2022-09-09T05:36:12;15.65;;;3.38;;
49416;SDS011;35290;39.550;8.786;2022-09-09T05:38:39;12.38;;;3.17;;
49416;SDS011;35290;39.550;8.786;2022-09-09T05:41:06;13.63;;;3.25;;
49416;SDS011;35290;39.550;8.786;2022-09-09T05:43:32;15.95;;;3.45;;
49416;SDS011;35290;39.550;8.786;2022-09-09T05:45:58;15.82;;;2.95;;
49416;SDS011;35290;39.550;8.786;2022-09-09T05:48:33;17.23;;;3.33;;
49416;SDS011;35290;39.550;8.786;2022-09-09T05:51:00;16.10;;;3.25;;
49416;SDS011;35290;39.550;8.786;2022-09-09T05:53:27;20.95;;;3.47;;
49416;SDS011;35290;39.550;8.786;2022-09-09T05:56:08;12.40;;;3.00;;
49416;SDS011;35290;39.550;8.786;2022-09-09T05:58:39;14.27;;;3.15;;
49416;SDS011;35290;39.550;8.786;2022-09-09T06:01:09;14.60;;;3.63;;
49416;SDS011;35290;39.550;8.786;2022-09-09T06:03:36;13.63;;;2.80;;
49416;SDS011;35290;39.550;8.786;2022-09-09T06:06:05;17.25;;;3.30;;
49416;SDS011;35290;39.550;8.786;2022-09-09T06:08:33;15.95;;;3.22;;
49416;SDS011;35290;39.550;8.786;2022-09-09T06:11:12;13.20;;;3.30;;
49416;SDS011;35290;39.550;8.786;2022-09-09T06:13:39;11.43;;;2.95;;
49416;SDS011;35290;39.550;8.786;2022-09-09T06:16:11;15.88;;;3.65;;
49416;SDS011;35290;39.550;8.786;2022-09-09T06:18:38;9.45;;;2.85;;
49416;SDS011;35290;39.550;8.786;2022-09-09T06:21:05;13.88;;;3.58;;
49416;SDS011;35290;39.550;8.786;2022-09-09T06:23:32;16.80;;;3.88;;
49416;SDS011;35290;39.550;8.786;2022-09-09T06:26:01;17.90;;;4.60;;
49416;SDS011;35290;39.550;8.786;2022-09-09T06:28:31;17.98;;;4.22;;
49416;SDS011;35290;39.550;8.786;2022-09-09T06:30:58;13.55;;;4.07;;
49416;SDS011;35290;39.550;8.786;2022-09-09T06:33:24;12.77;;;4.22;;
49416;SDS011;35290;39.550;8.786;2022-09-09T06:35:54;16.08;;;4.68;;
49416;SDS011;35290;39.550;8.786;2022-09-09T06:38:20;15.10;;;4.88;;
49416;SDS011;35290;39.550;8.786;2022-09-09T06:40:53;14.60;;;4.25;;
49416;SDS011;35290;39.550;8.786;2022-09-09T06:43:20;9.70;;;3.53;;
49416;SDS011;35290;39.550;8.786;2022-09-09T06:48:24;10.93;;;2.88;;
49416;SDS011;35290;39.550;8.786;2022-09-09T06:51:06;10.45;;;2.97;;
49416;SDS011;35290;39.550;8.786;2022-09-09T06:53:34;13.15;;;2.70;;
49416;SDS011;35290;39.550;8.786;2022-09-09T06:56:01;12.45;;;3.78;;
49416;SDS011;35290;39.550;8.786;2022-09-09T06:58:28;14.23;;;3.45;;
49416;SDS011;35290;39.550;8.786;2022-09-09T07:01:04;13.25;;;3.25;;
49416;SDS011;35290;39.550;8.786;2022-09-09T07:03:31;14.07;;;3.67;;
49416;SDS011;35290;39.550;8.786;2022-09-09T07:05:58;13.95;;;3.53;;
49416;SDS011;35290;39.550;8.786;2022-09-09T07:08:24;11.93;;;3.80;;
49416;SDS011;35290;39.550;8.786;2022-09-09T07:10:50;17.23;;;3.90;;
49416;SDS011;35290;39.550;8.786;2022-09-09T07:13:19;15.43;;;5.03;;
49416;SDS011;35290;39.550;8.786;2022-09-09T07:15:51;18.77;;;4.32;;
49416;SDS011;35290;39.550;8.786;2022-09-09T07:18:17;16.83;;;3.72;;
49416;SDS011;35290;39.550;8.786;2022-09-09T07:20:43;18.27;;;3.67;;
49416;SDS011;35290;39.550;8.786;2022-09-09T07:23:17;12.82;;;3.40;;
49416;SDS011;35290;39.550;8.786;2022-09-09T07:25:46;12.63;;;2.95;;
49416;SDS011;35290;39.550;8.786;2022-09-09T07:28:12;11.05;;;3.30;;
49416;SDS011;35290;39.550;8.786;2022-09-09T07:30:38;12.80;;;3.33;;
49416;SDS011;35290;39.550;8.786;2022-09-09T07:33:05;9.50;;;2.92;;
49416;SDS011;35290;39.550;8.786;2022-09-09T07:35:30;11.43;;;2.83;;
49416;SDS011;35290;39.550;8.786;2022-09-09T07:37:56;10.75;;;2.72;;
49416;SDS011;35290;39.550;8.786;2022-09-09T07:40:25;14.38;;;3.65;;
49416;SDS011;35290;39.550;8.786;2022-09-09T07:42:51;10.70;;;2.70;;
49416;SDS011;35290;39.550;8.786;2022-09-09T07:45:17;12.95;;;3.08;;
49416;SDS011;35290;39.550;8.786;2022-09-09T07:47:42;16.60;;;3.33;;
49416;SDS011;35290;39.550;8.786;2022-09-09T07:50:08;13.82;;;3.15;;
49416;SDS011;35290;39.550;8.786;2022-09-09T07:52:35;13.05;;;2.95;;
49416;SDS011;35290;39.550;8.786;2022-09-09T07:55:01;12.07;;;2.70;;
49416;SDS011;35290;39.550;8.786;2022-09-09T07:57:30;7.72;;;2.30;;
49416;SDS011;35290;39.550;8.786;2022-09-09T07:59:56;11.07;;;2.17;;
49416;SDS011;35290;39.550;8.786;2022-09-09T08:02:25;10.70;;;2.78;;
49416;SDS011;35290;39.550;8.786;2022-09-09T08:04:54;9.93;;;2.50;;
49416;SDS011;35290;39.550;8.786;2022-09-09T08:07:19;10.48;;;2.13;;
49416;SDS011;35290;39.550;8.786;2022-09-09T08:09:46;8.85;;;2.47;;
49416;SDS011;35290;39.550;8.786;2022-09-09T08:12:12;15.23;;;2.58;;
49416;SDS011;35290;39.550;8.786;2022-09-09T08:14:38;6.63;;;2.08;;
49416;SDS011;35290;39.550;8.786;2022-09-09T08:17:04;19.35;;;3.78;;
49416;SDS011;35290;39.550;8.786;2022-09-09T08:19:30;8.02;;;1.63;;
49416;SDS011;35290;39.550;8.786;2022-09-09T08:21:59;8.57;;;2.28;;
49416;SDS011;35290;39.550;8.786;2022-09-09T08:24:27;12.40;;;2.33;;
49416;SDS011;35290;39.550;8.786;2022-09-09T08:26:52;12.13;;;2.35;;
49416;SDS011;35290;39.550;8.786;2022-09-09T08:29:18;5.88;;;2.25;;
49416;SDS011;35290;39.550;8.786;2022-09-09T08:31:48;8.95;;;2.00;;
49416;SDS011;35290;39.550;8.786;2022-09-09T08:34:15;8.50;;;2.38;;
49416;SDS011;35290;39.550;8.786;2022-09-09T08:36:43;9.75;;;2.25;;
49416;SDS011;35290;39.550;8.786;2022-09-09T08:39:10;8.48;;;2.25;;
49416;SDS011;35290;39.550;8.786;2022-09-09T08:41:57;10.98;;;2.08;;
49416;SDS011;35290;39.550;8.786;2022-09-09T08:50:36;6.30;;;1.73;;
49416;SDS011;35290;39.550;8.786;2022-09-09T08:53:11;12.45;;;1.95;;
49416;SDS011;35290;39.550;8.786;2022-09-09T08:58:18;10.05;;;1.88;;
49416;SDS011;35290;39.550;8.786;2022-09-09T09:31:08;5.70;;;1.40;;
